createdAt,value
2022-11-14T00:00:57.263Z,100
2022-11-14T00:02:13.557Z,100
2022-11-14T00:03:29.857Z,100
2022-11-14T00:04:46.145Z,100
2022-11-14T00:06:02.429Z,100
2022-11-14T00:07:18.724Z,100
2022-11-14T00:08:35.028Z,100
2022-11-14T00:09:50.333Z,100
2022-11-14T00:11:06.645Z,100
2022-11-14T00:12:22.933Z,100
2022-11-14T00:13:39.223Z,100
2022-11-14T00:14:55.523Z,100
2022-11-14T00:16:11.810Z,100
2022-11-14T00:17:28.101Z,100
2022-11-14T00:18:44.406Z,100
2022-11-14T00:20:00.693Z,100
2022-11-14T00:21:16.995Z,100
2022-11-14T00:22:33.295Z,100
2022-11-14T00:23:49.578Z,100
2022-11-14T00:25:05.868Z,100
2022-11-14T00:26:22.181Z,100
2022-11-14T00:27:37.486Z,100
2022-11-14T00:30:10.077Z,100
2022-11-14T00:31:26.372Z,100
2022-11-14T00:32:42.653Z,100
2022-11-14T00:33:58.957Z,100
2022-11-14T00:35:15.250Z,100
2022-11-14T00:36:31.553Z,100
2022-11-14T00:37:47.846Z,100
2022-11-14T00:39:04.142Z,100
2022-11-14T00:40:20.439Z,100
2022-11-14T00:42:53.025Z,100
2022-11-14T00:44:08.330Z,100
2022-11-14T00:45:24.633Z,100
2022-11-14T00:46:40.914Z,100
2022-11-14T00:47:57.223Z,100
2022-11-14T00:49:13.513Z,100
2022-11-14T00:50:29.812Z,100
2022-11-14T00:51:46.094Z,100
2022-11-14T00:53:02.387Z,100
2022-11-14T00:55:34.978Z,100
2022-11-14T00:56:50.292Z,100
2022-11-14T00:58:05.604Z,100
2022-11-14T00:59:21.896Z,100
2022-11-14T01:00:38.190Z,100
2022-11-14T01:01:54.499Z,100
2022-11-14T01:04:27.090Z,100
2022-11-14T01:05:43.374Z,100
2022-11-14T01:06:59.665Z,100
2022-11-14T01:08:15.961Z,100
2022-11-14T01:09:32.257Z,100
2022-11-14T01:10:48.552Z,100
2022-11-14T01:12:04.845Z,100
2022-11-14T01:13:21.136Z,100
2022-11-14T01:14:36.447Z,100
2022-11-14T01:15:52.760Z,100
2022-11-14T01:17:09.046Z,100
2022-11-14T01:18:25.336Z,100
2022-11-14T01:19:41.635Z,100
2022-11-14T01:20:57.927Z,100
2022-11-14T01:22:14.233Z,100
2022-11-14T01:23:30.521Z,100
2022-11-14T01:24:45.829Z,100
2022-11-14T01:26:02.138Z,100
2022-11-14T01:27:17.446Z,100
2022-11-14T01:28:33.735Z,100
2022-11-14T01:29:50.023Z,100
2022-11-14T01:31:06.336Z,100
2022-11-14T01:34:55.218Z,100
2022-11-14T01:37:27.805Z,100
2022-11-14T01:38:44.090Z,100
2022-11-14T01:40:00.396Z,100
2022-11-14T01:41:16.681Z,100
2022-11-14T01:42:32.008Z,100
2022-11-14T01:43:47.319Z,100
2022-11-14T01:45:03.598Z,100
2022-11-14T01:46:19.901Z,100
2022-11-14T01:47:36.187Z,100
2022-11-14T01:48:52.494Z,100
2022-11-14T01:50:08.781Z,100
2022-11-14T01:51:25.082Z,100
2022-11-14T01:52:41.383Z,100
2022-11-14T01:53:57.674Z,100
2022-11-14T01:55:13.955Z,100
2022-11-14T01:57:45.578Z,100
2022-11-14T01:59:01.877Z,100
2022-11-14T02:00:17.178Z,100
2022-11-14T02:01:33.468Z,100
2022-11-14T02:02:49.771Z,100
2022-11-14T02:04:06.065Z,100
2022-11-14T02:05:22.357Z,100
2022-11-14T02:06:38.644Z,100
2022-11-14T02:07:54.950Z,100
2022-11-14T02:09:11.244Z,100
2022-11-14T02:11:42.843Z,100
2022-11-14T02:12:58.170Z,100
2022-11-14T02:14:14.463Z,100
2022-11-14T02:15:30.751Z,100
2022-11-14T02:16:47.073Z,100
2022-11-14T02:18:03.340Z,100
2022-11-14T02:19:19.641Z,100
2022-11-14T02:20:35.939Z,100
2022-11-14T02:21:52.233Z,100
2022-11-14T02:24:24.824Z,100
2022-11-14T02:25:41.109Z,100
2022-11-14T02:26:57.410Z,100
2022-11-14T02:28:13.707Z,100
2022-11-14T02:29:29.015Z,100
2022-11-14T02:30:45.307Z,100
2022-11-14T02:32:01.606Z,100
2022-11-14T02:33:17.914Z,100
2022-11-14T02:34:34.184Z,100
2022-11-14T02:37:06.788Z,100
2022-11-14T02:38:22.088Z,100
2022-11-14T02:39:37.418Z,100
2022-11-14T02:40:53.709Z,100
2022-11-14T02:42:09.998Z,100
2022-11-14T02:43:26.299Z,100
2022-11-14T02:44:42.589Z,100
2022-11-14T02:45:58.886Z,100
2022-11-14T02:47:15.179Z,100
2022-11-14T02:48:31.465Z,100
2022-11-14T02:51:04.073Z,100
2022-11-14T02:52:20.358Z,100
2022-11-14T02:53:36.653Z,100
2022-11-14T02:54:52.949Z,100
2022-11-14T02:56:08.268Z,100
2022-11-14T02:58:40.849Z,100
2022-11-14T02:59:57.157Z,100
2022-11-14T03:01:13.445Z,100
2022-11-14T03:02:29.732Z,100
2022-11-14T03:03:46.026Z,100
2022-11-14T03:05:02.332Z,100
2022-11-14T03:06:18.614Z,100
2022-11-14T03:07:34.911Z,100
2022-11-14T03:08:51.220Z,100
2022-11-14T03:10:07.501Z,100
2022-11-14T03:11:23.804Z,100
2022-11-14T03:12:39.105Z,100
2022-11-14T03:13:55.413Z,100
2022-11-14T03:15:11.692Z,100
2022-11-14T03:16:27.986Z,100
2022-11-14T03:17:43.315Z,100
2022-11-14T03:18:58.615Z,100
2022-11-14T03:21:31.215Z,100
2022-11-14T03:22:47.497Z,100
2022-11-14T03:24:03.811Z,100
2022-11-14T03:25:20.088Z,100
2022-11-14T03:26:36.390Z,100
2022-11-14T03:29:08.978Z,100
2022-11-14T03:30:25.279Z,100
2022-11-14T03:31:41.563Z,100
2022-11-14T03:32:57.869Z,100
2022-11-14T03:34:13.181Z,100
2022-11-14T03:35:28.496Z,100
2022-11-14T03:36:44.789Z,100
2022-11-14T03:38:01.079Z,100
2022-11-14T03:39:17.370Z,100
2022-11-14T03:40:33.667Z,100
2022-11-14T03:41:49.972Z,100
2022-11-14T03:43:06.260Z,100
2022-11-14T03:44:22.564Z,100
2022-11-14T03:45:38.843Z,100
2022-11-14T03:46:55.144Z,100
2022-11-14T03:48:10.456Z,100
2022-11-14T03:49:25.770Z,100
2022-11-14T03:50:42.074Z,100
2022-11-14T03:53:14.649Z,100
2022-11-14T03:54:30.950Z,100
2022-11-14T03:55:47.247Z,100
2022-11-14T03:57:03.531Z,100
2022-11-14T03:58:19.830Z,100
2022-11-14T03:59:36.132Z,100
2022-11-14T04:00:52.421Z,100
2022-11-14T04:02:08.724Z,100
2022-11-14T04:03:25.017Z,100
2022-11-14T04:07:13.891Z,100
2022-11-14T04:08:29.216Z,100
2022-11-14T04:09:44.523Z,100
2022-11-14T04:11:00.824Z,100
2022-11-14T04:12:17.114Z,100
2022-11-14T04:13:33.406Z,100
2022-11-14T04:14:49.703Z,100
2022-11-14T04:16:06.009Z,100
2022-11-14T04:17:22.286Z,100
2022-11-14T04:18:38.600Z,100
2022-11-14T04:19:54.887Z,100
2022-11-14T04:21:11.176Z,100
2022-11-14T04:22:26.502Z,100
2022-11-14T04:23:41.801Z,100
2022-11-14T04:24:58.105Z,100
2022-11-14T04:26:14.400Z,100
2022-11-14T04:27:30.699Z,100
2022-11-14T04:28:46.984Z,100
2022-11-14T04:30:03.289Z,100
2022-11-14T04:31:19.588Z,100
2022-11-14T04:32:35.863Z,100
2022-11-14T04:33:52.159Z,100
2022-11-14T04:35:08.466Z,100
2022-11-14T04:36:23.775Z,100
2022-11-14T04:37:39.092Z,100
2022-11-14T04:38:55.393Z,100
2022-11-14T04:40:11.678Z,100
2022-11-14T04:41:27.982Z,100
2022-11-14T04:42:44.260Z,100
2022-11-14T04:44:00.561Z,100
2022-11-14T04:45:16.848Z,100
2022-11-14T04:46:33.151Z,100
2022-11-14T04:47:49.450Z,100
2022-11-14T04:49:05.735Z,100
2022-11-14T04:50:22.028Z,100
2022-11-14T04:51:38.332Z,100
2022-11-14T04:52:54.627Z,100
2022-11-14T04:54:09.929Z,100
2022-11-14T04:56:42.519Z,100
2022-11-14T04:57:58.825Z,100
2022-11-14T04:59:15.111Z,100
2022-11-14T05:00:31.419Z,100
2022-11-14T05:01:47.711Z,100
2022-11-14T05:03:03.989Z,100
2022-11-14T05:04:20.299Z,100
2022-11-14T05:05:36.580Z,100
2022-11-14T05:06:52.882Z,100
2022-11-14T05:08:09.180Z,100
2022-11-14T05:09:25.467Z,100
2022-11-14T05:10:40.773Z,100
2022-11-14T05:11:57.086Z,100
2022-11-14T05:13:13.382Z,100
2022-11-14T05:14:29.676Z,100
2022-11-14T05:15:45.955Z,100
2022-11-14T05:17:02.259Z,100
2022-11-14T05:18:18.548Z,100
2022-11-14T05:19:34.838Z,100
2022-11-14T05:20:51.140Z,100
2022-11-14T05:22:07.435Z,100
2022-11-14T05:23:23.724Z,100
2022-11-14T05:24:40.035Z,100
2022-11-14T05:25:56.316Z,100
2022-11-14T05:27:11.635Z,100
2022-11-14T05:28:27.916Z,100
2022-11-14T05:29:44.214Z,100
2022-11-14T05:31:00.524Z,100
2022-11-14T05:32:16.809Z,100
2022-11-14T05:33:33.106Z,100
2022-11-14T05:34:49.407Z,100
2022-11-14T05:36:05.689Z,100
2022-11-14T05:37:21.979Z,100
2022-11-14T05:38:38.276Z,100
2022-11-14T05:39:54.575Z,100
2022-11-14T05:41:10.868Z,100
2022-11-14T05:42:27.165Z,100
2022-11-14T05:43:42.428Z,100
2022-11-14T05:44:58.707Z,100
2022-11-14T05:46:15.008Z,100
2022-11-14T05:47:31.273Z,100
2022-11-14T05:48:47.507Z,100
2022-11-14T05:50:03.798Z,100
2022-11-14T05:51:20.087Z,100
2022-11-14T05:52:36.393Z,100
2022-11-14T05:53:52.648Z,100
2022-11-14T05:55:08.902Z,100
2022-11-14T05:56:25.129Z,100
2022-11-14T05:57:41.368Z,100
2022-11-14T05:58:57.622Z,100
2022-11-14T06:00:12.871Z,100
2022-11-14T06:01:29.116Z,100
2022-11-14T06:02:45.357Z,100
2022-11-14T06:04:01.590Z,100
2022-11-14T06:05:17.828Z,100
2022-11-14T06:06:34.083Z,100
2022-11-14T06:07:50.314Z,100
2022-11-14T06:09:06.560Z,100
2022-11-14T06:10:22.795Z,100
2022-11-14T06:11:39.037Z,100
2022-11-14T06:12:55.271Z,100
2022-11-14T06:14:11.521Z,100
2022-11-14T06:15:27.765Z,100
2022-11-14T06:16:43.017Z,100
2022-11-14T06:17:59.251Z,100
2022-11-14T06:19:15.502Z,100
2022-11-14T06:20:31.741Z,100
2022-11-14T06:21:47.986Z,100
2022-11-14T06:23:04.230Z,100
2022-11-14T06:24:20.453Z,100
2022-11-14T06:25:36.706Z,100
2022-11-14T06:26:52.942Z,100
2022-11-14T06:28:09.175Z,100
2022-11-14T06:29:25.419Z,100
2022-11-14T06:30:41.659Z,100
2022-11-14T06:31:57.901Z,100
2022-11-14T06:33:13.171Z,100
2022-11-14T06:34:29.392Z,100
2022-11-14T06:35:45.652Z,100
2022-11-14T06:37:01.888Z,100
2022-11-14T06:38:18.128Z,100
2022-11-14T06:39:34.372Z,100
2022-11-14T06:40:50.597Z,100
2022-11-14T06:42:06.838Z,100
2022-11-14T06:43:23.092Z,100
2022-11-14T06:44:39.330Z,100
2022-11-14T06:45:55.561Z,100
2022-11-14T06:47:11.800Z,100
2022-11-14T06:48:28.045Z,100
2022-11-14T06:49:43.310Z,100
2022-11-14T06:50:59.557Z,100
2022-11-14T06:52:15.781Z,100
2022-11-14T06:53:32.032Z,100
2022-11-14T06:54:48.259Z,100
2022-11-14T06:56:04.514Z,100
2022-11-14T06:57:20.745Z,100
2022-11-14T06:58:36.995Z,100
2022-11-14T06:59:53.239Z,100
2022-11-14T07:01:09.482Z,100
2022-11-14T07:02:25.717Z,100
2022-11-14T07:03:41.962Z,100
2022-11-14T07:04:58.191Z,100
2022-11-14T07:06:13.453Z,100
2022-11-14T07:07:29.687Z,100
2022-11-14T07:08:45.937Z,100
2022-11-14T07:10:02.182Z,100
2022-11-14T07:11:17.445Z,100
2022-11-14T07:12:33.686Z,100
2022-11-14T07:13:49.914Z,100
2022-11-14T07:15:06.155Z,100
2022-11-14T07:16:22.406Z,100
2022-11-14T07:17:38.629Z,100
2022-11-14T07:18:54.890Z,100
2022-11-14T07:20:11.124Z,100
2022-11-14T07:21:27.352Z,100
2022-11-14T07:22:43.607Z,100
2022-11-14T07:25:16.094Z,100
2022-11-14T07:26:32.326Z,100
2022-11-14T07:27:47.582Z,100
2022-11-14T07:30:20.052Z,100
2022-11-14T07:32:52.548Z,100
2022-11-14T07:34:07.800Z,100
2022-11-14T07:35:23.053Z,100
2022-11-14T07:36:39.304Z,100
2022-11-14T07:37:55.551Z,100
2022-11-14T07:39:11.786Z,100
2022-11-14T07:40:28.033Z,100
2022-11-14T07:41:44.263Z,100
2022-11-14T07:43:00.515Z,100
2022-11-14T07:44:16.752Z,100
2022-11-14T07:45:32.993Z,100
2022-11-14T07:48:05.462Z,100
2022-11-14T07:49:21.703Z,100
2022-11-14T07:50:37.957Z,100
2022-11-14T07:51:53.200Z,100
2022-11-14T07:53:09.448Z,100
2022-11-14T07:54:25.685Z,100
2022-11-14T07:55:41.935Z,100
2022-11-14T07:56:58.171Z,100
2022-11-14T07:58:14.419Z,100
2022-11-14T07:59:30.650Z,100
2022-11-14T08:00:46.893Z,100
2022-11-14T08:02:02.157Z,100
2022-11-14T08:03:17.401Z,100
2022-11-14T08:04:33.655Z,100
2022-11-14T08:05:49.883Z,100
2022-11-14T08:07:06.125Z,100
2022-11-14T08:08:22.378Z,100
2022-11-14T08:09:38.611Z,100
2022-11-14T08:10:54.859Z,100
2022-11-14T08:12:11.095Z,100
2022-11-14T08:13:27.335Z,100
2022-11-14T08:14:43.576Z,100
2022-11-14T08:15:59.822Z,100
2022-11-14T08:17:16.064Z,100
2022-11-14T08:18:32.303Z,100
2022-11-14T08:19:47.545Z,100
2022-11-14T08:21:03.787Z,100
2022-11-14T08:22:20.027Z,100
2022-11-14T08:23:36.284Z,100
2022-11-14T08:24:52.524Z,100
2022-11-14T08:26:08.749Z,100
2022-11-14T08:27:24.993Z,100
2022-11-14T08:28:41.245Z,100
2022-11-14T08:29:57.472Z,100
2022-11-14T08:31:13.716Z,100
2022-11-14T08:32:29.953Z,100
2022-11-14T08:33:46.200Z,100
2022-11-14T08:35:02.438Z,100
2022-11-14T08:36:17.699Z,100
2022-11-14T08:37:33.933Z,100
2022-11-14T08:38:50.188Z,100
2022-11-14T08:40:06.425Z,100
2022-11-14T08:41:22.657Z,100
2022-11-14T08:42:38.904Z,100
2022-11-14T08:43:55.132Z,100
2022-11-14T08:45:11.377Z,100
2022-11-14T08:46:27.614Z,100
2022-11-14T08:47:43.857Z,100
2022-11-14T08:49:00.100Z,100
2022-11-14T08:50:16.354Z,100
2022-11-14T08:51:32.574Z,100
2022-11-14T08:52:47.838Z,100
2022-11-14T08:54:04.074Z,100
2022-11-14T08:55:20.319Z,100
2022-11-14T08:56:36.570Z,99.9
2022-11-14T08:57:52.807Z,100
2022-11-14T08:59:09.036Z,99.9
2022-11-14T09:00:25.283Z,99.9
2022-11-14T09:01:41.534Z,99.7
2022-11-14T09:02:57.767Z,99.3
2022-11-14T09:04:14.000Z,99.3
2022-11-14T09:05:30.249Z,99.3
2022-11-14T09:06:46.486Z,98.9
2022-11-14T09:08:02.734Z,99.2
2022-11-14T09:09:17.982Z,99.4
2022-11-14T09:10:34.232Z,99.4
2022-11-14T09:11:50.454Z,99.5
2022-11-14T09:13:06.702Z,99.2
2022-11-14T09:14:22.943Z,99
2022-11-14T09:15:39.178Z,99.1
2022-11-14T09:16:55.421Z,99
2022-11-14T09:18:11.679Z,99.2
2022-11-14T09:19:27.907Z,99.3
2022-11-14T09:22:00.387Z,98.9
2022-11-14T09:23:16.623Z,99
2022-11-14T09:24:32.861Z,98.5
2022-11-14T09:25:48.126Z,98.2
2022-11-14T09:27:04.378Z,98.3
2022-11-14T09:28:20.601Z,98.2
2022-11-14T09:29:36.855Z,98.3
2022-11-14T09:30:53.094Z,97.9
2022-11-14T09:32:09.328Z,98
2022-11-14T09:33:25.567Z,97.6
2022-11-14T09:34:41.816Z,97.5
2022-11-14T09:35:58.049Z,97.5
2022-11-14T09:37:14.298Z,98.1
2022-11-14T09:38:30.526Z,98
2022-11-14T09:39:46.768Z,97.5
2022-11-14T09:41:03.019Z,97.6
2022-11-14T09:42:18.267Z,98.1
2022-11-14T09:43:34.506Z,97.9
2022-11-14T09:44:50.754Z,97.4
2022-11-14T09:46:06.997Z,97.1
2022-11-14T09:47:23.228Z,97.4
2022-11-14T09:48:39.480Z,97.3
2022-11-14T09:49:55.718Z,97.2
2022-11-14T09:51:11.965Z,97.4
2022-11-14T09:52:28.204Z,97.8
2022-11-14T09:53:44.427Z,97.4
2022-11-14T09:55:00.684Z,97.1
2022-11-14T09:57:33.155Z,96.3
2022-11-14T09:58:48.408Z,96.9
2022-11-14T10:00:04.649Z,97.1
2022-11-14T10:01:20.902Z,96.5
2022-11-14T10:02:37.135Z,96.6
2022-11-14T10:03:53.382Z,96.4
2022-11-14T10:05:09.624Z,96.1
2022-11-14T10:06:25.863Z,96
2022-11-14T10:07:42.110Z,95.9
2022-11-14T10:08:58.336Z,95.7
2022-11-14T10:10:14.573Z,95.4
2022-11-14T10:11:30.830Z,95.7
2022-11-14T10:12:47.059Z,95.5
2022-11-14T10:14:03.293Z,95.2
2022-11-14T10:15:18.550Z,95.5
2022-11-14T10:16:34.808Z,95.7
2022-11-14T10:17:51.040Z,96.5
2022-11-14T10:19:07.271Z,96.7
2022-11-14T10:20:23.512Z,95.9
2022-11-14T10:21:39.761Z,95.2
2022-11-14T10:22:55.996Z,95
2022-11-14T10:24:12.248Z,95.2
2022-11-14T10:25:28.480Z,95.6
2022-11-14T10:28:00.953Z,94.5
2022-11-14T10:29:17.210Z,94.7
2022-11-14T10:30:33.453Z,94.7
2022-11-14T10:31:48.700Z,94.3
2022-11-14T10:33:04.936Z,94.2
2022-11-14T10:34:21.172Z,94.3
2022-11-14T10:35:37.424Z,94.2
2022-11-14T10:36:53.653Z,93.9
2022-11-14T10:38:09.893Z,93.5
2022-11-14T10:39:26.150Z,93.3
2022-11-14T10:40:42.393Z,93.5
2022-11-14T10:41:58.620Z,93.6
2022-11-14T10:43:14.855Z,92.9
2022-11-14T10:44:31.111Z,92
2022-11-14T10:45:47.346Z,91.1
2022-11-14T10:47:03.592Z,90.3
2022-11-14T10:48:18.836Z,89.8
2022-11-14T10:49:35.093Z,89.3
2022-11-14T10:50:51.332Z,89
2022-11-14T10:52:07.568Z,88.9
2022-11-14T10:53:23.803Z,88.9
2022-11-14T10:54:40.040Z,89.1
2022-11-14T10:55:56.289Z,89
2022-11-14T10:57:12.527Z,88.8
2022-11-14T10:58:28.770Z,88.3
2022-11-14T10:59:45.008Z,88.2
2022-11-14T11:01:01.247Z,87.8
2022-11-14T11:02:17.484Z,88.3
2022-11-14T11:03:33.726Z,87.8
2022-11-14T11:04:48.979Z,88.5
2022-11-14T11:06:05.234Z,88.1
2022-11-14T11:08:37.713Z,85.9
2022-11-14T11:09:53.950Z,86
2022-11-14T11:11:10.187Z,86
2022-11-14T11:12:26.429Z,85.9
2022-11-14T11:13:42.666Z,86.2
2022-11-14T11:14:58.900Z,84.7
2022-11-14T11:16:15.154Z,84.9
2022-11-14T11:17:31.396Z,84.8
2022-11-14T11:18:47.638Z,84.6
2022-11-14T11:20:03.873Z,84.9
2022-11-14T11:21:20.230Z,85.7
2022-11-14T11:22:36.463Z,85.9
2022-11-14T11:23:52.717Z,85.5
2022-11-14T11:25:08.957Z,85.3
2022-11-14T11:26:24.209Z,86.2
2022-11-14T11:28:56.696Z,86
2022-11-14T11:30:12.930Z,86.1
2022-11-14T11:31:29.172Z,85.8
2022-11-14T11:32:45.424Z,85.8
2022-11-14T11:34:01.667Z,84.8
2022-11-14T11:35:17.891Z,85
2022-11-14T11:36:34.139Z,85.4
2022-11-14T11:37:50.369Z,83.9
2022-11-14T11:39:06.620Z,83.2
2022-11-14T11:40:22.853Z,82.9
2022-11-14T11:41:39.112Z,82.2
2022-11-14T11:42:54.353Z,81.9
2022-11-14T11:44:10.604Z,82
2022-11-14T11:46:43.072Z,82.9
2022-11-14T11:47:59.309Z,83
2022-11-14T11:49:15.566Z,82.6
2022-11-14T11:51:48.035Z,81.5
2022-11-14T11:53:03.297Z,81.8
2022-11-14T11:54:18.548Z,82.5
2022-11-14T11:55:34.806Z,82.6
2022-11-14T11:56:51.042Z,81.5
2022-11-14T11:58:07.289Z,82.7
2022-11-14T11:59:23.530Z,81.9
2022-11-14T12:00:39.759Z,81.5
2022-11-14T12:01:56.009Z,81.9
2022-11-14T12:03:12.240Z,82.1
2022-11-14T12:04:28.478Z,81.3
2022-11-14T12:05:44.720Z,81.3
2022-11-14T12:06:59.993Z,82.2
2022-11-14T12:08:16.223Z,81.5
2022-11-14T12:09:31.475Z,80.5
2022-11-14T12:10:47.730Z,81.3
2022-11-14T12:12:03.954Z,81
2022-11-14T12:13:20.199Z,81.5
2022-11-14T12:14:36.436Z,82.5
2022-11-14T12:15:52.675Z,83
2022-11-14T12:17:08.917Z,81.8
2022-11-14T12:18:25.157Z,81.5
2022-11-14T12:19:41.412Z,81
2022-11-14T12:20:57.654Z,80.4
2022-11-14T12:22:13.875Z,79.7
2022-11-14T12:24:46.356Z,80.4
2022-11-14T12:26:01.620Z,80.5
2022-11-14T12:27:17.864Z,80.8
2022-11-14T12:28:34.098Z,80.8
2022-11-14T12:29:50.352Z,81.7
2022-11-14T12:31:06.594Z,81.9
2022-11-14T12:32:22.828Z,81.4
2022-11-14T12:33:39.056Z,81.3
2022-11-14T12:34:55.300Z,80.6
2022-11-14T12:36:11.552Z,79.9
2022-11-14T12:37:27.789Z,80.7
2022-11-14T12:38:44.033Z,81
2022-11-14T12:40:00.267Z,80.5
2022-11-14T12:41:16.516Z,79.9
2022-11-14T12:42:31.757Z,79.8
2022-11-14T12:43:48.007Z,79.1
2022-11-14T12:45:04.241Z,78.8
2022-11-14T12:46:20.478Z,79.5
2022-11-14T12:47:36.733Z,79.6
2022-11-14T12:48:52.966Z,81.2
2022-11-14T12:50:09.216Z,80.5
2022-11-14T12:51:25.445Z,80
2022-11-14T12:52:41.694Z,79.6
2022-11-14T12:53:57.938Z,79
2022-11-14T12:55:14.161Z,79.2
2022-11-14T12:56:30.413Z,79.9
2022-11-14T12:57:46.644Z,81.3
2022-11-14T12:59:01.896Z,80.6
2022-11-14T13:00:18.153Z,79.8
2022-11-14T13:01:34.392Z,79.9
2022-11-14T13:02:50.631Z,79.9
2022-11-14T13:04:06.878Z,79
2022-11-14T13:05:23.109Z,80.2
2022-11-14T13:07:55.579Z,80.9
2022-11-14T13:09:11.822Z,80.6
2022-11-14T13:10:28.077Z,80.2
2022-11-14T13:11:44.318Z,80.6
2022-11-14T13:13:00.553Z,80.6
2022-11-14T13:14:16.790Z,80.7
2022-11-14T13:15:32.047Z,80.2
2022-11-14T13:16:48.283Z,79.9
2022-11-14T13:18:04.533Z,80.2
2022-11-14T13:19:20.766Z,81
2022-11-14T13:20:37.010Z,80.2
2022-11-14T13:21:53.250Z,80.8
2022-11-14T13:23:09.480Z,79.9
2022-11-14T13:24:25.720Z,80
2022-11-14T13:25:41.960Z,80.2
2022-11-14T13:26:58.200Z,80.2
2022-11-14T13:28:14.444Z,81.6
2022-11-14T13:29:30.694Z,80.9
2022-11-14T13:30:46.916Z,80.3
2022-11-14T13:32:02.189Z,80.2
2022-11-14T13:33:18.412Z,79.8
2022-11-14T13:34:34.669Z,79.7
2022-11-14T13:35:50.906Z,79.6
2022-11-14T13:37:07.149Z,79.9
2022-11-14T13:38:23.385Z,80.2
2022-11-14T13:39:39.611Z,80.5
2022-11-14T13:40:55.855Z,81.1
2022-11-14T13:42:12.107Z,79.8
2022-11-14T13:43:28.338Z,80
2022-11-14T13:44:44.586Z,80.2
2022-11-14T13:46:00.826Z,80.8
2022-11-14T13:47:17.068Z,80.3
2022-11-14T13:48:32.314Z,80
2022-11-14T13:49:48.561Z,80.8
2022-11-14T13:51:04.801Z,80.2
2022-11-14T13:52:21.045Z,80.1
2022-11-14T13:53:37.279Z,80.8
2022-11-14T13:54:53.528Z,80.7
2022-11-14T13:56:09.756Z,81.4
2022-11-14T13:57:25.994Z,80.7
2022-11-14T13:58:42.248Z,81.1
2022-11-14T13:59:58.492Z,80.5
2022-11-14T14:01:14.718Z,80.6
2022-11-14T14:02:30.954Z,81.4
2022-11-14T14:03:47.202Z,80.8
2022-11-14T14:05:02.451Z,81.1
2022-11-14T14:06:18.695Z,80.8
2022-11-14T14:07:34.949Z,80
2022-11-14T14:08:51.178Z,79.6
2022-11-14T14:10:07.429Z,79.9
2022-11-14T14:11:23.661Z,80
2022-11-14T14:12:39.911Z,79.6
2022-11-14T14:13:56.137Z,80
2022-11-14T14:15:12.373Z,81.5
2022-11-14T14:16:28.627Z,80.6
2022-11-14T14:17:44.868Z,81.2
2022-11-14T14:19:01.103Z,81.1
2022-11-14T14:20:17.345Z,81.5
2022-11-14T14:21:32.595Z,81.4
2022-11-14T14:22:48.833Z,81.7
2022-11-14T14:24:05.089Z,81.7
2022-11-14T14:25:21.317Z,81.2
2022-11-14T14:26:37.565Z,81.2
2022-11-14T14:27:53.807Z,82
2022-11-14T14:29:10.043Z,81.9
2022-11-14T14:30:26.288Z,81.8
2022-11-14T14:31:42.525Z,82.4
2022-11-14T14:32:58.760Z,82.8
2022-11-14T14:34:14.996Z,83.2
2022-11-14T14:35:31.246Z,83.3
2022-11-14T14:36:47.486Z,83.4
2022-11-14T14:38:02.740Z,83.8
2022-11-14T14:39:18.984Z,84.2
2022-11-14T14:40:35.225Z,84
2022-11-14T14:41:51.462Z,84.3
2022-11-14T14:43:07.705Z,84.4
2022-11-14T14:44:23.934Z,84.6
2022-11-14T14:45:40.172Z,84.6
2022-11-14T14:46:56.414Z,84.8
2022-11-14T14:48:12.674Z,85
2022-11-14T14:50:45.139Z,85
2022-11-14T14:52:01.387Z,85.1
2022-11-14T14:54:33.863Z,85.2
2022-11-14T14:55:49.120Z,85.4
2022-11-14T14:57:05.359Z,85.8
2022-11-14T14:58:21.599Z,85.5
2022-11-14T14:59:37.834Z,85.8
2022-11-14T15:00:54.075Z,86
2022-11-14T15:02:10.324Z,85.9
2022-11-14T15:03:26.560Z,86.2
2022-11-14T15:04:42.800Z,86.6
2022-11-14T15:05:59.035Z,86.3
2022-11-14T15:07:15.282Z,86.6
2022-11-14T15:08:31.533Z,86.7
2022-11-14T15:09:47.775Z,87.1
2022-11-14T15:11:04.009Z,87
2022-11-14T15:12:19.263Z,87.1
2022-11-14T15:13:35.503Z,87.2
2022-11-14T15:14:51.753Z,87.5
2022-11-14T15:16:07.980Z,87.6
2022-11-14T15:17:24.216Z,87.7
2022-11-14T15:18:40.463Z,87.9
2022-11-14T15:19:56.704Z,88
2022-11-14T15:21:12.941Z,87.8
2022-11-14T15:22:29.177Z,87.9
2022-11-14T15:23:45.433Z,88
2022-11-14T15:25:01.658Z,88.4
2022-11-14T15:26:17.916Z,88
2022-11-14T15:27:34.151Z,88
2022-11-14T15:28:49.399Z,88.2
2022-11-14T15:30:05.648Z,88.2
2022-11-14T15:31:21.876Z,88.5
2022-11-14T15:32:38.132Z,88.5
2022-11-14T15:33:54.365Z,88.4
2022-11-14T15:35:10.603Z,88.5
2022-11-14T15:36:26.855Z,88.6
2022-11-14T15:37:43.090Z,88.6
2022-11-14T15:38:59.340Z,88.8
2022-11-14T15:40:15.562Z,88.7
2022-11-14T15:41:30.843Z,88.8
2022-11-14T15:42:47.072Z,88.9
2022-11-14T15:44:03.323Z,88.9
2022-11-14T15:45:19.560Z,88.7
2022-11-14T15:46:35.784Z,88.7
2022-11-14T15:47:52.036Z,89
2022-11-14T15:49:08.267Z,89
2022-11-14T15:50:24.519Z,88.7
2022-11-14T15:51:40.766Z,89.2
2022-11-14T15:52:56.986Z,89.3
2022-11-14T15:54:13.223Z,89.1
2022-11-14T15:55:29.463Z,89.2
2022-11-14T15:56:45.716Z,89.4
2022-11-14T15:58:00.975Z,89.1
2022-11-14T15:59:17.215Z,89
2022-11-14T16:00:33.451Z,88.9
2022-11-14T16:01:49.752Z,88.9
2022-11-14T16:03:06.035Z,88.8
2022-11-14T16:04:22.328Z,88.8
2022-11-14T16:05:38.633Z,88.5
2022-11-14T16:06:54.912Z,88.5
2022-11-14T16:08:11.210Z,88.5
2022-11-14T16:09:27.503Z,88.5
2022-11-14T16:10:43.800Z,88.5
2022-11-14T16:12:00.100Z,88.3
2022-11-14T16:13:16.389Z,88.3
2022-11-14T16:14:31.708Z,88.2
2022-11-14T16:15:48.000Z,88.3
2022-11-14T16:17:04.300Z,88.2
2022-11-14T16:18:20.583Z,88.1
2022-11-14T16:19:36.878Z,88
2022-11-14T16:20:53.178Z,88.1
2022-11-14T16:22:09.464Z,87.8
2022-11-14T16:23:25.759Z,87.6
2022-11-14T16:24:42.058Z,87.6
2022-11-14T16:25:58.354Z,87.4
2022-11-14T16:27:14.659Z,87.4
2022-11-14T16:28:30.947Z,87.4
2022-11-14T16:29:47.234Z,87.8
2022-11-14T16:31:03.539Z,87.7
2022-11-14T16:32:18.853Z,87.7
2022-11-14T16:33:35.142Z,87.6
2022-11-14T16:34:51.445Z,87.5
2022-11-14T16:36:07.722Z,87.7
2022-11-14T16:37:24.036Z,87.7
2022-11-14T16:38:40.321Z,87.6
2022-11-14T16:41:12.918Z,87.9
2022-11-14T16:42:29.202Z,87.8
2022-11-14T16:43:45.489Z,87.6
2022-11-14T16:45:01.789Z,87.7
2022-11-14T16:46:18.075Z,87.7
2022-11-14T16:47:34.373Z,87.9
2022-11-14T16:48:49.687Z,87.8
2022-11-14T16:50:05.994Z,87.8
2022-11-14T16:51:22.284Z,87.8
2022-11-14T16:52:38.581Z,87.8
2022-11-14T16:53:54.879Z,87.8
2022-11-14T16:55:11.169Z,87.7
2022-11-14T16:56:27.463Z,87.8
2022-11-14T16:57:43.753Z,87.9
2022-11-14T16:59:00.053Z,88.1
2022-11-14T17:00:16.348Z,88.1
2022-11-14T17:01:32.635Z,88.2
2022-11-14T17:02:48.940Z,88.1
2022-11-14T17:04:05.221Z,88.2
2022-11-14T17:06:36.840Z,88.3
2022-11-14T17:07:53.120Z,88.5
2022-11-14T17:09:09.423Z,88.3
2022-11-14T17:10:25.721Z,88.4
2022-11-14T17:11:42.011Z,88.3
2022-11-14T17:12:58.311Z,88.6
2022-11-14T17:14:14.605Z,88.4
2022-11-14T17:15:30.895Z,88.4
2022-11-14T17:16:47.185Z,88.3
2022-11-14T17:18:03.481Z,88.4
2022-11-14T17:19:19.772Z,88.2
2022-11-14T17:20:36.074Z,88.4
2022-11-14T17:21:51.384Z,88.3
2022-11-14T17:23:07.669Z,88.3
2022-11-14T17:24:23.959Z,88.3
2022-11-14T17:25:40.270Z,88.2
2022-11-14T17:26:56.566Z,88.4
2022-11-14T17:28:12.846Z,88.3
2022-11-14T17:29:29.157Z,88.3
2022-11-14T17:30:45.437Z,88.5
2022-11-14T17:32:01.732Z,88.5
2022-11-14T17:33:18.027Z,88.4
2022-11-14T17:34:34.329Z,88.5
2022-11-14T17:35:50.620Z,88.5
2022-11-14T17:37:06.909Z,88.7
2022-11-14T17:38:22.227Z,88.6
2022-11-14T17:39:38.510Z,88.7
2022-11-14T17:42:11.112Z,88.7
2022-11-14T17:43:27.396Z,88.7
2022-11-14T17:44:43.688Z,88.9
2022-11-14T17:45:59.991Z,88.7
2022-11-14T17:47:16.288Z,88.7
2022-11-14T17:48:32.575Z,88.9
2022-11-14T17:49:48.868Z,88.7
2022-11-14T17:52:21.457Z,89
2022-11-14T17:53:37.754Z,88.9
2022-11-14T17:54:53.000Z,89
2022-11-14T17:56:09.371Z,89.2
2022-11-14T17:57:25.666Z,89.1
2022-11-14T17:58:41.956Z,89.3
2022-11-14T17:59:58.242Z,89.2
2022-11-14T18:01:14.550Z,89.5
2022-11-14T18:02:30.843Z,89.5